Aérodrome :
LOGIN :

S'inscrire | Disclaimer

   EN    FR    IT 

 










Légende :    VFR   VFR Marginal   IFR   IFR Intensif   IFR Très Intensif
Visi : 
Plafond : 
>= 8 km
>= 3000ft
5 à 8 km
1000 à 3000 ft
1500m à 5 km
500 à 1000 ft
800 à 1500m
200 à 500 ft
< 800m
< 200 ft
Symboles :   Orages  Brouillard  Fortes neiges  Fortes précipitations  Vent > 20 kt
SIGMETs :   Divers  Orages  Givrage  Turbulence  Onde Orograph.  Cendres Volcan.






- Altitude de l'aérodrome : 348 ft
- Code IATA : LDV


LFRJ - Landivisiau

DERNIER METAR :
  • 140100Z AUTO 23009KT 9999 -DZ FEW034 SCT050 BKN072 03/03 Q0992

METARs EXPIRÉS :
  • 140030Z AUTO 24008KT 9999 FEW021/// SCT036/// BKN074/// ///TCU 04/03 Q0992
  • 140000Z AUTO 24009KT 9999 FEW012/// BKN029/// BKN054/// ///CB 04/02 Q0992
  • 132330Z AUTO 25009KT 9999 -RA FEW014/// SCT040/// BKN056/// ///CB 05/02 Q0992
  • 132300Z AUTO 28013KT 9999 -RA FEW020/// BKN032/// BKN039/// ///CB 05/03 Q0992
  • 132230Z AUTO 29007KT 9999 -RA FEW027/// SCT037/// BKN046/// ///TCU 05/03 Q0992

TAF TAF LFRJ
Valide du 13 à 18h jusqu'au 14 à 03h UTC


131700Z 1318/1403 28012KT 9999 BKN030
TEMPO 1318/1403 30015G25KT 2500 SHRAGS BKN010CB



MET'MAP, la Météo Aéronautique d'un coup d'oeil ! - Copyright ORBIFLY Décembre 2007 - Disclaimer

ORBIFLY MET'MAP TEAM :

Programmation & Développement : Alexandra Zaïnal
Conception & Développement : Baudouin d'Aumeries
Co-Programmation & Développement : Marc-Olivier Méhu
Soutien technique & logistique : Manuel Goepfert

Contact : metmap@orbifly.com




SOURCES & CREDITS :

   NOAA